createdAt,value
2023-04-16T00:00:15.645Z,96235.83
2023-04-16T00:03:04.174Z,96236.19
2023-04-16T00:05:32.665Z,96236.63
2023-04-16T00:08:01.552Z,96238.24
2023-04-16T00:10:29.506Z,96236.56
2023-04-16T00:12:57.620Z,96234.11
2023-04-16T00:15:26.084Z,96236.77
2023-04-16T00:17:54.199Z,96235.22
2023-04-16T00:20:22.641Z,96239.48
2023-04-16T00:22:51.336Z,96238.18
2023-04-16T00:25:19.420Z,96244.35
2023-04-16T00:27:47.469Z,96239.89
2023-04-16T00:30:16.062Z,96240.02
2023-04-16T00:32:44.030Z,96238.94
2023-04-16T00:35:12.191Z,96240.98
2023-04-16T00:37:40.276Z,96244.85
2023-04-16T00:40:09.068Z,96250.40
2023-04-16T00:42:38.255Z,96250.16
2023-04-16T00:45:07.352Z,96247.32
2023-04-16T00:47:35.430Z,96255.00
2023-04-16T00:50:04.622Z,96257.57
2023-04-16T00:52:33.087Z,96254.96
2023-04-16T00:55:01.519Z,96254.26
2023-04-16T00:57:30.773Z,96255.59
2023-04-16T00:59:58.834Z,96253.37
2023-04-16T01:02:27.090Z,96252.51
2023-04-16T01:04:55.304Z,96251.64
2023-04-16T01:07:23.571Z,96248.24
2023-04-16T01:09:51.753Z,96251.91
2023-04-16T01:12:19.818Z,96257.45
2023-04-16T01:14:47.785Z,96259.17
2023-04-16T01:17:15.941Z,96259.09
2023-04-16T01:19:44.148Z,96257.55
2023-04-16T01:22:12.335Z,96257.02
2023-04-16T01:24:40.802Z,96256.51
2023-04-16T01:27:11.422Z,96255.05
2023-04-16T01:29:39.614Z,96249.52
2023-04-16T01:32:08.486Z,96252.62
2023-04-16T01:34:38.767Z,96251.91
2023-04-16T01:37:07.560Z,96248.01
2023-04-16T01:39:35.783Z,96247.09
2023-04-16T01:42:03.863Z,96246.08
2023-04-16T01:44:31.955Z,96246.13
2023-04-16T01:47:00.354Z,96245.73
2023-04-16T01:49:28.376Z,96245.24
2023-04-16T01:51:56.597Z,96249.64
2023-04-16T01:54:25.486Z,96248.52
2023-04-16T01:56:53.626Z,96252.41
2023-04-16T01:59:21.929Z,96249.52
2023-04-16T02:01:50.146Z,96246.12
2023-04-16T02:04:18.141Z,96243.21
2023-04-16T02:06:47.031Z,96241.20
2023-04-16T02:09:15.711Z,96237.13
2023-04-16T02:11:43.999Z,96236.80
2023-04-16T02:14:12.263Z,96240.28
2023-04-16T02:16:40.577Z,96241.88
2023-04-16T02:19:14.649Z,96243.08
2023-04-16T02:21:43.753Z,96245.17
2023-04-16T02:24:12.225Z,96245.23
2023-04-16T02:26:40.707Z,96245.91
2023-04-16T02:29:13.187Z,96246.65
2023-04-16T02:31:44.724Z,96242.45
2023-04-16T02:34:13.844Z,96239.97
2023-04-16T02:36:42.125Z,96240.57
2023-04-16T02:39:10.651Z,96243.92
2023-04-16T02:41:38.772Z,96245.38
2023-04-16T02:44:06.933Z,96241.52
2023-04-16T02:46:35.130Z,96242.34
2023-04-16T02:49:03.186Z,96245.15
2023-04-16T02:51:31.269Z,96246.04
2023-04-16T02:53:59.338Z,96248.23
2023-04-16T02:56:27.397Z,96255.45
2023-04-16T02:58:55.674Z,96254.77
2023-04-16T03:01:23.664Z,96246.59
2023-04-16T03:03:52.071Z,96243.92
2023-04-16T03:06:20.111Z,96247.50
2023-04-16T03:08:48.272Z,96250.60
2023-04-16T03:11:17.172Z,96251.88
2023-04-16T03:13:45.345Z,96251.79
2023-04-16T03:16:13.466Z,96252.84
2023-04-16T03:18:41.483Z,96252.95
2023-04-16T03:21:09.665Z,96254.77
2023-04-16T03:23:37.824Z,96255.66
2023-04-16T03:26:06.579Z,96256.18
2023-04-16T03:28:35.046Z,96255.33
2023-04-16T03:31:03.416Z,96258.73
2023-04-16T03:33:31.506Z,96257.88
2023-04-16T03:35:59.725Z,96259.69
2023-04-16T03:38:30.680Z,96259.66
2023-04-16T03:41:00.083Z,96264.96
2023-04-16T03:43:28.254Z,96269.45
2023-04-16T03:45:56.782Z,96274.58
2023-04-16T03:48:24.793Z,96270.52
2023-04-16T03:50:53.868Z,96273.55
2023-04-16T03:53:22.072Z,96276.34
2023-04-16T03:55:51.681Z,96273.55
2023-04-16T03:58:20.469Z,96278.45
2023-04-16T04:00:48.952Z,96278.51
2023-04-16T04:03:18.095Z,96280.39
2023-04-16T04:05:47.763Z,96280.60
2023-04-16T04:08:18.183Z,96286.21
2023-04-16T04:10:46.348Z,96289.17
2023-04-16T04:13:15.248Z,96291.76
2023-04-16T04:15:44.651Z,96291.98
2023-04-16T04:20:45.812Z,96292.48
2023-04-16T04:23:15.930Z,96295.20
2023-04-16T04:25:44.536Z,96298.39
2023-04-16T04:28:14.028Z,96301.50
2023-04-16T04:30:42.308Z,96299.73
2023-04-16T04:33:10.663Z,96299.42
2023-04-16T04:43:19.753Z,96307.91
2023-04-16T04:45:49.477Z,96307.77
2023-04-16T04:48:18.355Z,96307.06
2023-04-16T04:50:46.837Z,96307.75
2023-04-16T04:53:15.158Z,96309.27
2023-04-16T04:55:43.955Z,96311.36
2023-04-16T04:58:12.088Z,96312.27
2023-04-16T05:00:40.430Z,96308.72
2023-04-16T05:03:11.569Z,96311.52
2023-04-16T05:05:40.794Z,96313.58
2023-04-16T05:08:08.984Z,96313.80
2023-04-16T05:10:36.950Z,96315.48
2023-04-16T05:13:05.038Z,96316.25
2023-04-16T05:15:33.086Z,96310.36
2023-04-16T05:18:01.422Z,96314.34
2023-04-16T05:20:29.433Z,96313.90
2023-04-16T05:22:57.521Z,96319.77
2023-04-16T05:25:25.410Z,96323.59
2023-04-16T05:27:53.460Z,96326.67
2023-04-16T05:30:21.518Z,96325.27
2023-04-16T05:32:49.496Z,96322.16
2023-04-16T05:35:17.914Z,96325.79
2023-04-16T05:37:46.149Z,96328.36
2023-04-16T05:40:14.681Z,96323.92
2023-04-16T05:42:42.800Z,96321.42
2023-04-16T05:45:11.174Z,96322.27
2023-04-16T05:47:39.100Z,96323.33
2023-04-16T05:50:07.833Z,96319.77
2023-04-16T05:52:35.900Z,96314.58
2023-04-16T05:55:04.181Z,96319.15
2023-04-16T05:57:32.962Z,96320.21
2023-04-16T06:00:01.044Z,96319.44
2023-04-16T06:02:30.781Z,96318.96
2023-04-16T06:04:59.261Z,96326.98
2023-04-16T06:07:27.199Z,96322.73
2023-04-16T06:09:55.272Z,96320.53
2023-04-16T06:12:23.338Z,96321.38
2023-04-16T06:14:51.754Z,96326.29
2023-04-16T06:17:20.009Z,96321.86
2023-04-16T06:19:48.069Z,96321.35
2023-04-16T06:22:16.343Z,96320.96
2023-04-16T06:24:44.725Z,96322.27
2023-04-16T06:27:12.798Z,96325.24
2023-04-16T06:29:41.810Z,96327.30
2023-04-16T06:32:10.268Z,96321.27
2023-04-16T06:34:38.868Z,96320.60
2023-04-16T06:37:09.876Z,96321.67
2023-04-16T06:39:38.788Z,96318.99
2023-04-16T06:42:06.873Z,96318.31
2023-04-16T06:44:35.789Z,96321.09
2023-04-16T06:47:03.903Z,96319.55
2023-04-16T06:49:32.207Z,96321.02
2023-04-16T06:52:00.482Z,96318.48
2023-04-16T06:54:28.412Z,96316.64
2023-04-16T06:56:56.500Z,96319.61
2023-04-16T06:59:24.903Z,96324.24
2023-04-16T07:01:53.051Z,96322.46
2023-04-16T07:04:21.303Z,96323.77
2023-04-16T07:06:49.415Z,96320.75
2023-04-16T07:09:20.248Z,96314.92
2023-04-16T07:11:48.324Z,96315.11
2023-04-16T07:14:16.402Z,96317.32
2023-04-16T07:16:44.541Z,96316.44
2023-04-16T07:19:12.859Z,96317.19
2023-04-16T07:21:43.837Z,96316.55
2023-04-16T07:24:12.062Z,96318.50
2023-04-16T07:26:40.042Z,96320.61
2023-04-16T07:29:08.669Z,96321.52
2023-04-16T07:31:37.014Z,96320.09
2023-04-16T07:34:05.273Z,96323.52
2023-04-16T07:36:33.760Z,96323.59
2023-04-16T07:39:01.834Z,96318.42
2023-04-16T07:41:29.909Z,96319.91
2023-04-16T07:43:58.382Z,96318.10
2023-04-16T07:46:30.509Z,96316.53
2023-04-16T07:49:04.350Z,96315.73
2023-04-16T07:51:32.343Z,96316.21
2023-04-16T07:54:00.809Z,96315.48
2023-04-16T07:56:28.989Z,96304.83
2023-04-16T07:58:58.344Z,96309.44
2023-04-16T08:01:31.679Z,96307.56
2023-04-16T08:03:59.720Z,96308.98
2023-04-16T08:06:28.135Z,96305.24
2023-04-16T08:08:56.217Z,96307.11
2023-04-16T08:11:24.378Z,96308.04
2023-04-16T08:13:52.450Z,96304.40
2023-04-16T08:16:20.589Z,96300.84
2023-04-16T08:18:49.001Z,96298.52
2023-04-16T08:21:17.073Z,96293.52
2023-04-16T08:23:45.139Z,96294.30
2023-04-16T08:26:13.220Z,96296.63
2023-04-16T08:28:41.178Z,96294.97
2023-04-16T08:31:09.228Z,96293.10
2023-04-16T08:33:37.331Z,96290.14
2023-04-16T08:36:05.994Z,96290.26
2023-04-16T08:38:33.969Z,96293.73
2023-04-16T08:41:03.995Z,96292.84
2023-04-16T08:43:34.751Z,96290.96
2023-04-16T08:46:04.231Z,96291.67
2023-04-16T08:48:33.850Z,96292.77
2023-04-16T08:51:02.234Z,96294.23
2023-04-16T08:53:37.492Z,96295.92
2023-04-16T08:56:06.357Z,96295.02
2023-04-16T08:58:35.867Z,96291.80
2023-04-16T09:01:04.017Z,96291.73
2023-04-16T09:06:05.815Z,96296.48
2023-04-16T09:08:34.908Z,96296.11
2023-04-16T09:11:02.994Z,96293.76
2023-04-16T09:13:31.980Z,96295.30
2023-04-16T09:16:00.061Z,96293.27
2023-04-16T09:18:28.744Z,96292.28
2023-04-16T09:20:57.250Z,96291.23
2023-04-16T09:23:25.606Z,96292.46
2023-04-16T09:28:58.900Z,96288.00
2023-04-16T09:31:27.455Z,96290.61
2023-04-16T09:34:08.869Z,96291.55
2023-04-16T09:36:37.080Z,96290.04
2023-04-16T09:39:05.226Z,96289.61
2023-04-16T09:41:36.260Z,96288.09
2023-04-16T09:44:05.548Z,96284.98
2023-04-16T09:46:37.928Z,96279.27
2023-04-16T09:49:10.607Z,96278.30
2023-04-16T09:51:44.931Z,96272.13
2023-04-16T09:54:13.115Z,96270.08
2023-04-16T09:56:44.258Z,96269.84
2023-04-16T09:59:19.322Z,96268.50
2023-04-16T10:01:49.519Z,96272.11
2023-04-16T10:04:18.040Z,96270.30
2023-04-16T10:07:05.326Z,96269.85
2023-04-16T10:09:43.017Z,96263.98
2023-04-16T10:12:13.038Z,96257.27
2023-04-16T10:14:41.337Z,96255.53
2023-04-16T10:17:09.766Z,96254.33
2023-04-16T10:19:38.577Z,96250.58
2023-04-16T10:22:06.946Z,96249.89
2023-04-16T10:24:35.566Z,96247.30
2023-04-16T10:27:03.822Z,96245.49
2023-04-16T10:29:31.910Z,96245.35
2023-04-16T10:32:00.078Z,96246.07
2023-04-16T10:34:29.169Z,96242.65
2023-04-16T10:36:57.214Z,96242.73
2023-04-16T10:39:27.833Z,96242.29
2023-04-16T10:42:12.223Z,96243.32
2023-04-16T10:44:44.390Z,96242.06
2023-04-16T10:47:14.258Z,96241.64
2023-04-16T10:49:43.782Z,96237.32
2023-04-16T10:52:13.610Z,96234.68
2023-04-16T10:54:41.662Z,96240.70
2023-04-16T10:57:12.340Z,96238.30
2023-04-16T10:59:41.492Z,96235.05
2023-04-16T11:02:17.930Z,96231.02
2023-04-16T11:04:47.728Z,96230.43
2023-04-16T11:07:18.661Z,96226.32
2023-04-16T11:09:47.952Z,96227.86
2023-04-16T11:12:24.114Z,96229.71
2023-04-16T11:14:53.707Z,96231.74
2023-04-16T11:17:22.218Z,96231.98
2023-04-16T11:24:56.708Z,96225.09
2023-04-16T11:27:25.543Z,96228.39
2023-04-16T11:30:07.492Z,96222.52
2023-04-16T11:32:36.748Z,96221.77
2023-04-16T11:35:13.522Z,96220.46
2023-04-16T11:37:42.195Z,96218.02
2023-04-16T11:40:11.080Z,96210.37
2023-04-16T11:42:42.715Z,96207.40
2023-04-16T11:45:12.142Z,96202.95
2023-04-16T11:47:58.295Z,96204.86
2023-04-16T11:50:27.964Z,96199.98
2023-04-16T11:52:57.161Z,96193.01
2023-04-16T11:55:26.135Z,96191.79
2023-04-16T11:57:54.207Z,96188.28
2023-04-16T12:00:24.584Z,96185.00
2023-04-16T12:02:54.047Z,96180.79
2023-04-16T12:05:48.942Z,96178.21
2023-04-16T12:08:29.095Z,96179.23
2023-04-16T12:10:58.304Z,96177.09
2023-04-16T12:13:26.369Z,96172.20
2023-04-16T12:18:28.866Z,96168.33
2023-04-16T12:20:56.992Z,96167.11
2023-04-16T12:26:12.443Z,96166.20
2023-04-16T12:28:41.722Z,96158.48
2023-04-16T12:31:11.488Z,96157.55
2023-04-16T12:33:39.624Z,96159.16
2023-04-16T12:36:18.671Z,96154.04
2023-04-16T12:38:46.916Z,96151.27
2023-04-16T12:41:14.888Z,96144.23
2023-04-16T12:43:42.959Z,96142.39
2023-04-16T12:46:11.250Z,96142.16
2023-04-16T12:48:39.019Z,96138.27
2023-04-16T12:51:07.493Z,96135.83
2023-04-16T12:53:35.570Z,96133.52
2023-04-16T12:56:03.651Z,96126.79
2023-04-16T12:58:31.903Z,96124.73
2023-04-16T13:01:00.175Z,96120.28
2023-04-16T13:03:28.505Z,96121.20
2023-04-16T13:05:57.037Z,96121.96
2023-04-16T13:08:24.898Z,96119.67
2023-04-16T13:10:52.869Z,96118.21
2023-04-16T13:13:20.854Z,96111.86
2023-04-16T13:15:48.981Z,96111.99
2023-04-16T13:18:17.301Z,96107.25
2023-04-16T13:20:45.673Z,96112.21
2023-04-16T13:23:13.763Z,96113.29
2023-04-16T13:25:41.818Z,96111.67
2023-04-16T13:28:10.001Z,96115.35
2023-04-16T13:30:38.283Z,96113.96
2023-04-16T13:33:06.392Z,96116.91
2023-04-16T13:35:34.416Z,96125.33
2023-04-16T13:38:02.305Z,96128.45
2023-04-16T13:40:30.463Z,96137.16
2023-04-16T13:42:58.527Z,96143.43
2023-04-16T13:45:28.030Z,96138.36
2023-04-16T13:47:56.553Z,96133.15
2023-04-16T13:50:24.676Z,96132.38
2023-04-16T13:52:52.826Z,96133.23
2023-04-16T13:55:21.143Z,96132.60
2023-04-16T13:57:49.801Z,96135.96
2023-04-16T14:00:18.508Z,96142.61
2023-04-16T14:02:49.051Z,96146.05
2023-04-16T14:05:17.328Z,96145.66
2023-04-16T14:07:46.522Z,96143.05
2023-04-16T14:10:14.597Z,96140.90
2023-04-16T14:12:44.429Z,96141.21
2023-04-16T14:15:14.756Z,96144.48
2023-04-16T14:17:43.702Z,96144.09
2023-04-16T14:20:12.957Z,96149.50
2023-04-16T14:22:42.625Z,96151.95
2023-04-16T14:25:11.303Z,96154.61
2023-04-16T14:27:39.679Z,96153.38
2023-04-16T14:30:07.854Z,96151.00
2023-04-16T14:32:36.600Z,96153.89
2023-04-16T14:35:05.735Z,96159.09
2023-04-16T14:37:35.964Z,96158.08
2023-04-16T14:40:08.992Z,96158.16
2023-04-16T14:42:37.429Z,96149.67
2023-04-16T14:45:08.912Z,96146.23
2023-04-16T14:47:37.977Z,96148.04
2023-04-16T14:50:06.704Z,96146.89
2023-04-16T14:52:35.052Z,96142.67
2023-04-16T14:55:03.230Z,96145.80
2023-04-16T14:57:31.676Z,96151.92
2023-04-16T14:59:59.879Z,96149.64
2023-04-16T15:02:28.260Z,96149.61
2023-04-16T15:04:56.836Z,96147.63
2023-04-16T15:07:26.425Z,96147.08
2023-04-16T15:09:54.628Z,96144.40
2023-04-16T15:12:22.615Z,96148.08
2023-04-16T15:14:50.969Z,96146.60
2023-04-16T15:17:19.523Z,96148.73
2023-04-16T15:19:47.826Z,96146.66
2023-04-16T15:22:16.007Z,96144.67
2023-04-16T15:24:44.160Z,96142.98
2023-04-16T15:27:14.101Z,96144.44
2023-04-16T15:29:43.207Z,96151.00
2023-04-16T15:32:11.495Z,96160.23
2023-04-16T15:34:39.448Z,96167.63
2023-04-16T15:37:07.408Z,96172.98
2023-04-16T15:39:35.584Z,96180.38
2023-04-16T15:42:09.483Z,96185.57
2023-04-16T15:44:37.578Z,96172.86
2023-04-16T15:47:08.197Z,96168.98
2023-04-16T15:49:36.704Z,96171.17
2023-04-16T15:52:05.049Z,96167.57
2023-04-16T15:54:33.077Z,96166.63
2023-04-16T15:57:01.954Z,96168.45
2023-04-16T15:59:30.201Z,96169.67
2023-04-16T16:01:59.155Z,96163.92
2023-04-16T16:04:28.355Z,96165.05
2023-04-16T16:06:56.683Z,96161.36
2023-04-16T16:09:28.110Z,96164.87
2023-04-16T16:11:57.429Z,96169.45
2023-04-16T16:14:27.038Z,96166.22
2023-04-16T16:16:55.150Z,96163.69
2023-04-16T16:19:23.173Z,96156.27
2023-04-16T16:21:51.536Z,96159.39
2023-04-16T16:24:19.657Z,96162.75
2023-04-16T16:26:47.800Z,96161.73
2023-04-16T16:29:16.081Z,96162.48
2023-04-16T16:31:44.193Z,96159.65
2023-04-16T16:34:20.094Z,96157.88
2023-04-16T16:36:49.294Z,96156.57
2023-04-16T16:39:17.358Z,96157.70
2023-04-16T16:41:45.862Z,96156.08
2023-04-16T16:44:14.017Z,96153.78
2023-04-16T16:46:42.235Z,96157.28
2023-04-16T16:49:10.661Z,96159.63
2023-04-16T16:51:39.081Z,96160.60
2023-04-16T16:54:07.427Z,96157.16
2023-04-16T16:56:35.295Z,96158.90
2023-04-16T16:59:03.234Z,96161.02
2023-04-16T17:01:32.188Z,96161.23
2023-04-16T17:04:00.631Z,96159.91
2023-04-16T17:06:28.862Z,96159.84
2023-04-16T17:08:57.002Z,96164.48
2023-04-16T17:11:27.336Z,96168.52
2023-04-16T17:13:55.383Z,96179.36
2023-04-16T17:16:24.229Z,96184.64
2023-04-16T17:18:52.355Z,96185.55
2023-04-16T17:21:20.317Z,96185.08
2023-04-16T17:23:48.504Z,96192.02
2023-04-16T17:26:16.787Z,96193.92
2023-04-16T17:28:44.739Z,96197.02
2023-04-16T17:31:13.019Z,96202.13
2023-04-16T17:33:41.195Z,96208.08
2023-04-16T17:36:09.140Z,96208.96
2023-04-16T17:38:37.142Z,96209.02
2023-04-16T17:41:05.209Z,96211.98
2023-04-16T17:43:33.274Z,96214.33
2023-04-16T17:46:01.588Z,96213.94
2023-04-16T17:48:29.829Z,96217.29
2023-04-16T17:50:58.006Z,96218.05
2023-04-16T17:53:25.973Z,96219.92
2023-04-16T17:55:56.564Z,96218.18
2023-04-16T17:58:26.780Z,96220.98
2023-04-16T18:00:54.905Z,96225.48
2023-04-16T18:03:23.104Z,96227.39
2023-04-16T18:05:51.660Z,96229.23
2023-04-16T18:08:19.727Z,96229.52
2023-04-16T18:10:47.791Z,96228.08
2023-04-16T18:13:15.948Z,96232.72
2023-04-16T18:15:44.066Z,96235.61
2023-04-16T18:18:12.246Z,96234.45
2023-04-16T18:20:40.931Z,96237.66
2023-04-16T18:23:09.186Z,96234.27
2023-04-16T18:25:37.490Z,96240.60
2023-04-16T18:28:06.343Z,96238.84
2023-04-16T18:30:35.530Z,96238.91
2023-04-16T18:33:25.330Z,96240.66
2023-04-16T18:35:51.547Z,96241.12
2023-04-16T18:38:19.628Z,96242.34
2023-04-16T18:40:49.883Z,96245.23
2023-04-16T18:43:18.113Z,96248.88
2023-04-16T18:45:46.395Z,96249.10
2023-04-16T18:48:14.664Z,96252.39
2023-04-16T18:50:42.846Z,96251.77
2023-04-16T18:53:10.910Z,96254.37
2023-04-16T18:55:39.041Z,96256.73
2023-04-16T18:58:07.372Z,96257.17
2023-04-16T19:00:35.670Z,96261.52
2023-04-16T19:03:07.102Z,96259.74
2023-04-16T19:05:35.788Z,96254.81
2023-04-16T19:08:04.064Z,96250.98
2023-04-16T19:10:32.142Z,96256.20
2023-04-16T19:13:00.275Z,96260.30
2023-04-16T19:15:31.094Z,96262.04
2023-04-16T19:18:00.620Z,96261.26
2023-04-16T19:20:28.821Z,96263.53
2023-04-16T19:22:57.000Z,96259.99
2023-04-16T19:25:24.940Z,96256.83
2023-04-16T19:27:53.351Z,96260.44
2023-04-16T19:30:21.625Z,96262.18
2023-04-16T19:32:49.766Z,96259.95
2023-04-16T19:35:17.871Z,96257.83
2023-04-16T19:37:45.948Z,96254.95
2023-04-16T19:40:14.220Z,96255.60
2023-04-16T19:42:42.324Z,96251.39
2023-04-16T19:45:10.644Z,96249.99
2023-04-16T19:47:41.865Z,96250.60
2023-04-16T19:50:10.821Z,96250.75
2023-04-16T19:52:39.152Z,96250.90
2023-04-16T19:55:08.188Z,96252.65
2023-04-16T19:57:36.355Z,96247.97
2023-04-16T20:00:08.923Z,96252.23
2023-04-16T20:02:36.955Z,96255.30
2023-04-16T20:05:06.303Z,96254.67
2023-04-16T20:07:34.579Z,96251.61
2023-04-16T20:10:03.202Z,96249.38
2023-04-16T20:12:31.142Z,96247.44
2023-04-16T20:14:59.727Z,96244.30
2023-04-16T20:17:28.001Z,96245.81
2023-04-16T20:20:01.033Z,96246.71
2023-04-16T20:22:29.156Z,96243.17
2023-04-16T20:24:58.143Z,96243.70
2023-04-16T20:27:26.375Z,96246.44
2023-04-16T20:29:54.594Z,96241.77
2023-04-16T20:32:23.340Z,96240.70
2023-04-16T20:34:52.273Z,96236.56
2023-04-16T20:37:20.462Z,96237.30
2023-04-16T20:39:50.466Z,96239.90
2023-04-16T20:42:22.205Z,96239.95
2023-04-16T20:44:56.577Z,96240.70
2023-04-16T20:47:24.815Z,96240.30
2023-04-16T20:49:54.815Z,96239.91
2023-04-16T20:52:22.912Z,96244.73
2023-04-16T20:54:52.523Z,96246.15
2023-04-16T20:57:20.590Z,96242.55
2023-04-16T20:59:49.277Z,96243.61
2023-04-16T21:02:17.450Z,96245.42
2023-04-16T21:04:46.083Z,96247.02
2023-04-16T21:07:14.509Z,96242.51
2023-04-16T21:09:42.497Z,96242.81
2023-04-16T21:12:10.581Z,96240.21
2023-04-16T21:14:38.516Z,96236.45
2023-04-16T21:17:06.692Z,96229.11
2023-04-16T21:19:34.674Z,96230.48
2023-04-16T21:22:02.980Z,96230.02
2023-04-16T21:24:32.671Z,96229.70
2023-04-16T21:27:01.840Z,96232.49
2023-04-16T21:29:30.535Z,96232.11
2023-04-16T21:31:58.574Z,96227.83
2023-04-16T21:34:26.688Z,96230.48
2023-04-16T21:36:54.778Z,96230.02
2023-04-16T21:39:24.769Z,96228.39
2023-04-16T21:41:52.843Z,96228.15
2023-04-16T21:44:21.433Z,96229.27
2023-04-16T21:46:50.083Z,96228.59
2023-04-16T21:49:18.309Z,96223.08
2023-04-16T21:51:46.465Z,96221.23
2023-04-16T21:54:18.030Z,96220.61
2023-04-16T21:56:46.346Z,96218.92
2023-04-16T21:59:14.381Z,96216.15
2023-04-16T22:01:42.904Z,96216.61
2023-04-16T22:04:12.404Z,96215.99
2023-04-16T22:06:40.839Z,96217.06
2023-04-16T22:09:09.732Z,96217.12
2023-04-16T22:11:38.514Z,96215.59
2023-04-16T22:14:08.337Z,96213.67
2023-04-16T22:16:36.686Z,96212.25
2023-04-16T22:19:05.104Z,96216.23
2023-04-16T22:21:33.262Z,96214.60
2023-04-16T22:24:01.349Z,96215.13
2023-04-16T22:26:29.417Z,96214.97
2023-04-16T22:28:57.687Z,96215.80
2023-04-16T22:31:25.790Z,96210.45
2023-04-16T22:33:53.713Z,96211.29
2023-04-16T22:36:22.203Z,96207.84
2023-04-16T22:38:50.356Z,96210.12
2023-04-16T22:41:18.578Z,96207.53
2023-04-16T22:43:46.843Z,96207.83
2023-04-16T22:46:14.934Z,96202.94
2023-04-16T22:48:43.083Z,96204.61
2023-04-16T22:51:11.137Z,96204.14
2023-04-16T22:53:39.091Z,96203.59
2023-04-16T22:56:07.700Z,96201.27
2023-04-16T22:58:35.881Z,96199.27
2023-04-16T23:01:03.913Z,96198.13
2023-04-16T23:03:32.093Z,96196.96
2023-04-16T23:06:00.187Z,96196.52
2023-04-16T23:08:28.254Z,96194.20
2023-04-16T23:10:56.334Z,96195.57
2023-04-16T23:13:24.499Z,96196.31
2023-04-16T23:15:52.889Z,96194.93
2023-04-16T23:18:20.957Z,96192.71
2023-04-16T23:20:52.921Z,96190.86
2023-04-16T23:23:21.303Z,96187.81
2023-04-16T23:25:51.933Z,96187.40
2023-04-16T23:28:20.524Z,96188.84
2023-04-16T23:30:52.501Z,96183.48
2023-04-16T23:33:21.062Z,96182.64
2023-04-16T23:35:48.893Z,96178.58
2023-04-16T23:38:17.097Z,96179.35
2023-04-16T23:40:45.183Z,96174.69
2023-04-16T23:43:13.259Z,96173.55
2023-04-16T23:45:41.315Z,96172.40
2023-04-16T23:48:09.486Z,96169.81
2023-04-16T23:50:37.580Z,96171.54
2023-04-16T23:53:05.649Z,96175.75
2023-04-16T23:55:33.926Z,96170.16
2023-04-16T23:58:01.891Z,96171.91
